Maricopa, Arizona
Current Conditions -  °F | °C
As of 2:55 PM on Tuesday 21 Oct 2014 (Local Time) from KCGZ Reporting Station
Clear Clear  
Wind Chill: 29°   Ceiling: Unl
Heat Index: 29°   Visibility: 10mi
Dew Point:   Wind: 0mph
Humidity: 28%   Direction: NA
Pressure: 29.82"   Gusts: NA
Location:  33.06°N, 112.05°W
Report Text: KCGZ 212155Z AUTO 00000KT 10SM CLR 29/09 A2982 RMK AO1
Loading
Personal Weather Stations






























Interactive Weather Map
Tropical Storm Tracking
New forecast layout! Learn more

10-Day Weather Forecast

Advertisements
Track Severe Weather on mobile